createdAt,value
2018-09-22T00:00:51.992Z,99091.00
2018-09-22T00:03:21.778Z,99091.00
2018-09-22T00:05:50.888Z,99087.00
2018-09-22T00:08:20.009Z,99091.00
2018-09-22T00:10:49.080Z,99085.00
2018-09-22T00:13:18.190Z,99089.00
2018-09-22T00:15:47.318Z,99091.00
2018-09-22T00:18:16.304Z,99100.00
2018-09-22T00:20:45.446Z,99099.00
2018-09-22T00:23:14.556Z,99110.00
2018-09-22T00:25:43.653Z,99107.00
2018-09-22T00:28:12.996Z,99114.00
2018-09-22T00:30:42.073Z,99113.00
2018-09-22T00:33:11.189Z,99119.00
2018-09-22T00:35:40.342Z,99117.00
2018-09-22T00:38:09.409Z,99110.00
2018-09-22T00:40:38.452Z,99108.00
2018-09-22T00:43:07.752Z,99117.00
2018-09-22T00:45:36.880Z,99127.00
2018-09-22T00:48:05.987Z,99132.00
2018-09-22T00:50:35.089Z,99126.00
2018-09-22T00:53:04.135Z,99129.00
2018-09-22T00:55:33.256Z,99136.00
2018-09-22T00:58:02.860Z,99125.00
2018-09-22T01:00:31.964Z,99113.00
2018-09-22T01:03:01.016Z,99118.00
2018-09-22T01:05:30.145Z,99130.00
2018-09-22T01:07:59.219Z,99136.00
2018-09-22T01:10:28.316Z,99143.00
2018-09-22T01:12:57.408Z,99137.00
2018-09-22T01:15:26.550Z,99141.00
2018-09-22T01:17:55.588Z,99138.00
2018-09-22T01:20:25.096Z,99145.00
2018-09-22T01:22:54.224Z,99148.00
2018-09-22T01:25:23.321Z,99146.00
2018-09-22T01:27:52.416Z,99145.00
2018-09-22T01:30:21.499Z,99146.00
2018-09-22T01:32:50.563Z,99163.00
2018-09-22T01:35:20.236Z,99167.00
2018-09-22T01:37:49.320Z,99171.00
2018-09-22T01:40:18.436Z,99157.00
2018-09-22T01:42:47.508Z,99142.00
2018-09-22T01:45:16.589Z,99139.00
2018-09-22T01:47:45.816Z,99147.00
2018-09-22T01:50:14.896Z,99157.00
2018-09-22T01:52:43.982Z,99155.00
2018-09-22T01:55:13.016Z,99152.00
2018-09-22T01:57:43.033Z,99148.00
2018-09-22T02:00:12.168Z,99165.00
2018-09-22T02:02:41.208Z,99173.00
2018-09-22T02:05:10.300Z,99171.00
2018-09-22T02:07:39.352Z,99166.00
2018-09-22T02:10:08.460Z,99166.00
2018-09-22T02:12:37.532Z,99167.00
2018-09-22T02:15:06.769Z,99194.00
2018-09-22T02:17:35.860Z,99188.00
2018-09-22T02:20:05.365Z,99173.00
2018-09-22T02:22:34.528Z,99163.00
2018-09-22T02:25:03.640Z,99166.00
2018-09-22T02:27:32.753Z,99173.00
2018-09-22T02:30:01.853Z,99171.00
2018-09-22T02:32:31.155Z,99176.00
2018-09-22T02:35:00.326Z,99186.00
2018-09-22T02:37:29.388Z,99188.00
2018-09-22T02:39:58.537Z,99194.00
2018-09-22T02:42:27.596Z,99181.00
2018-09-22T02:44:56.709Z,99173.00
2018-09-22T02:47:26.257Z,99179.00
2018-09-22T02:49:56.965Z,99181.00
2018-09-22T02:52:26.036Z,99180.00
2018-09-22T02:54:55.156Z,99174.00
2018-09-22T02:57:24.254Z,99181.00
2018-09-22T02:59:53.350Z,99187.00
2018-09-22T03:02:22.753Z,99198.00
2018-09-22T03:04:51.854Z,99198.00
2018-09-22T03:07:20.922Z,99217.00
2018-09-22T03:09:50.004Z,99228.00
2018-09-22T03:12:19.103Z,99230.00
2018-09-22T03:14:48.760Z,99224.00
2018-09-22T03:17:17.816Z,99225.00
2018-09-22T03:19:46.932Z,99231.00
2018-09-22T03:22:16.033Z,99226.00
2018-09-22T03:24:45.124Z,99228.00
2018-09-22T03:27:14.725Z,99215.00
2018-09-22T03:29:43.832Z,99209.00
2018-09-22T03:32:12.917Z,99205.00
2018-09-22T03:34:42.008Z,99198.00
2018-09-22T03:37:11.083Z,99201.00
2018-09-22T03:39:40.209Z,99197.00
2018-09-22T03:42:09.425Z,99207.00
2018-09-22T03:44:39.144Z,99207.00
2018-09-22T03:47:08.314Z,99193.00
2018-09-22T03:49:37.465Z,99199.00
2018-09-22T03:52:06.828Z,99203.00
2018-09-22T03:54:35.968Z,99195.00
2018-09-22T03:57:05.100Z,99195.00
2018-09-22T03:59:34.208Z,99198.00
2018-09-22T04:02:03.268Z,99218.00
2018-09-22T04:04:32.589Z,99220.00
2018-09-22T04:07:01.692Z,99217.00
2018-09-22T04:09:30.881Z,99219.00
2018-09-22T04:11:59.965Z,99224.00
2018-09-22T04:14:29.085Z,99220.00
2018-09-22T04:16:58.177Z,99225.00
2018-09-22T04:19:27.255Z,99223.00
2018-09-22T04:21:56.851Z,99234.00
2018-09-22T04:24:25.980Z,99247.00
2018-09-22T04:26:55.127Z,99244.00
2018-09-22T04:29:24.269Z,99239.00
2018-09-22T04:31:53.364Z,99243.00
2018-09-22T04:34:22.433Z,99234.00
2018-09-22T04:36:51.529Z,99238.00
2018-09-22T04:39:20.624Z,99240.00
2018-09-22T04:41:49.741Z,99248.00
2018-09-22T04:44:18.893Z,99246.00
2018-09-22T04:46:48.037Z,99250.00
2018-09-22T04:49:17.128Z,99255.00
2018-09-22T04:51:46.204Z,99251.00
2018-09-22T04:54:15.324Z,99248.00
2018-09-22T04:56:44.525Z,99251.00
2018-09-22T04:59:13.560Z,99252.00
2018-09-22T05:01:42.600Z,99256.00
2018-09-22T05:04:11.704Z,99253.00
2018-09-22T05:06:40.764Z,99257.00
2018-09-22T05:09:12.296Z,99269.00
2018-09-22T05:11:41.536Z,99269.00
2018-09-22T05:14:10.742Z,99272.00
2018-09-22T05:16:40.157Z,99279.00
2018-09-22T05:19:09.248Z,99284.00
2018-09-22T05:21:38.284Z,99286.00
2018-09-22T05:24:07.428Z,99283.00
2018-09-22T05:26:36.488Z,99283.00
2018-09-22T05:29:05.902Z,99285.00
2018-09-22T05:31:35.508Z,99281.00
2018-09-22T05:34:04.698Z,99280.00
2018-09-22T05:36:33.788Z,99285.00
2018-09-22T05:39:02.840Z,99293.00
2018-09-22T05:41:32.050Z,99289.00
2018-09-22T05:44:01.100Z,99293.00
2018-09-22T05:46:30.500Z,99292.00
2018-09-22T05:49:00.023Z,99300.00
2018-09-22T05:51:29.092Z,99309.00
2018-09-22T05:53:58.492Z,99313.00
2018-09-22T05:56:27.507Z,99317.00
2018-09-22T05:58:57.184Z,99306.00
2018-09-22T06:01:26.490Z,99309.00
2018-09-22T06:03:56.261Z,99314.00
2018-09-22T06:06:25.097Z,99320.00
2018-09-22T06:08:55.249Z,99321.00
2018-09-22T06:11:24.348Z,99323.00
2018-09-22T06:13:53.436Z,99324.00
2018-09-22T06:16:22.945Z,99314.00
2018-09-22T06:18:51.996Z,99311.00
2018-09-22T06:21:21.420Z,99315.00
2018-09-22T06:23:50.517Z,99323.00
2018-09-22T06:26:19.779Z,99320.00
2018-09-22T06:28:48.942Z,99326.00
2018-09-22T06:31:18.180Z,99327.00
2018-09-22T06:33:47.206Z,99323.00
2018-09-22T06:36:16.303Z,99322.00
2018-09-22T06:38:45.384Z,99320.00
2018-09-22T06:41:14.447Z,99320.00
2018-09-22T06:43:43.589Z,99318.00
2018-09-22T06:46:12.955Z,99314.00
2018-09-22T06:48:42.023Z,99328.00
2018-09-22T06:51:11.500Z,99317.00
2018-09-22T06:53:40.776Z,99307.00
2018-09-22T06:56:09.872Z,99313.00
2018-09-22T06:58:39.005Z,99306.00
2018-09-22T07:01:08.100Z,99303.00
2018-09-22T07:03:37.156Z,99294.00
2018-09-22T07:06:06.240Z,99291.00
2018-09-22T07:08:35.792Z,99276.00
2018-09-22T07:11:04.851Z,99276.00
2018-09-22T07:13:33.909Z,99278.00
2018-09-22T07:16:02.981Z,99274.00
2018-09-22T07:18:32.016Z,99278.00
2018-09-22T07:21:06.613Z,99285.00
2018-09-22T07:23:35.992Z,99279.00
2018-09-22T07:26:05.432Z,99279.00
2018-09-22T07:28:34.577Z,99279.00
2018-09-22T07:31:03.876Z,99267.00
2018-09-22T07:33:32.992Z,99260.00
2018-09-22T07:36:02.097Z,99254.00
2018-09-22T07:38:31.161Z,99262.00
2018-09-22T07:41:00.276Z,99266.00
2018-09-22T07:43:30.049Z,99268.00
2018-09-22T07:45:59.114Z,99270.00
2018-09-22T07:48:28.333Z,99270.00
2018-09-22T07:50:57.784Z,99263.00
2018-09-22T07:53:26.864Z,99266.00
2018-09-22T07:55:56.148Z,99273.00
2018-09-22T07:58:25.280Z,99271.00
2018-09-22T08:00:54.373Z,99276.00
2018-09-22T08:03:23.472Z,99282.00
2018-09-22T08:05:52.544Z,99282.00
2018-09-22T08:08:21.768Z,99282.00
2018-09-22T08:10:50.836Z,99283.00
2018-09-22T08:13:20.464Z,99290.00
2018-09-22T08:15:49.565Z,99303.00
2018-09-22T08:18:18.657Z,99306.00
2018-09-22T08:20:47.780Z,99310.00
2018-09-22T08:23:17.100Z,99311.00
2018-09-22T08:25:46.164Z,99301.00
2018-09-22T08:28:15.312Z,99296.00
2018-09-22T08:30:44.443Z,99294.00
2018-09-22T08:33:13.608Z,99292.00
2018-09-22T08:35:42.721Z,99300.00
2018-09-22T08:38:11.835Z,99305.00
2018-09-22T08:40:41.096Z,99301.00
2018-09-22T08:43:10.180Z,99295.00
2018-09-22T08:45:39.318Z,99312.00
2018-09-22T08:48:08.835Z,99316.00
2018-09-22T08:50:37.876Z,99315.00
2018-09-22T08:53:07.341Z,99309.00
2018-09-22T08:55:36.468Z,99295.00
2018-09-22T08:58:06.200Z,99294.00
2018-09-22T09:00:35.379Z,99298.00
2018-09-22T09:03:04.390Z,99286.00
2018-09-22T09:05:33.464Z,99278.00
2018-09-22T09:08:02.504Z,99277.00
2018-09-22T09:10:31.611Z,99275.00
2018-09-22T09:13:00.692Z,99264.00
2018-09-22T09:15:29.820Z,99257.00
2018-09-22T09:17:58.856Z,99258.00
2018-09-22T09:20:27.984Z,99264.00
2018-09-22T09:22:57.096Z,99258.00
2018-09-22T09:25:26.674Z,99256.00
2018-09-22T09:27:55.765Z,99242.00
2018-09-22T09:30:24.860Z,99231.00
2018-09-22T09:32:53.971Z,99226.00
2018-09-22T09:35:23.104Z,99216.00
2018-09-22T09:37:52.253Z,99205.00
2018-09-22T09:40:21.339Z,99201.00
2018-09-22T09:42:50.461Z,99205.00
2018-09-22T09:45:19.557Z,99210.00
2018-09-22T09:47:48.627Z,99208.00
2018-09-22T09:50:17.700Z,99219.00
2018-09-22T09:52:46.844Z,99218.00
2018-09-22T09:55:15.944Z,99208.00
2018-09-22T09:57:44.972Z,99205.00
2018-09-22T10:00:14.067Z,99190.00
2018-09-22T10:02:43.180Z,99192.00
2018-09-22T10:05:12.276Z,99177.00
2018-09-22T10:07:41.416Z,99179.00
2018-09-22T10:10:10.826Z,99187.00
2018-09-22T10:12:39.914Z,99186.00
2018-09-22T10:15:09.011Z,99188.00
2018-09-22T10:17:38.152Z,99203.00
2018-09-22T10:20:07.373Z,99193.00
2018-09-22T10:22:36.452Z,99185.00
2018-09-22T10:25:05.596Z,99185.00
2018-09-22T10:27:34.636Z,99175.00
2018-09-22T10:30:03.812Z,99159.00
2018-09-22T10:32:32.941Z,99167.00
2018-09-22T10:35:02.044Z,99168.00
2018-09-22T10:37:31.152Z,99175.00
2018-09-22T10:40:00.292Z,99151.00
2018-09-22T10:42:29.340Z,99146.00
2018-09-22T10:44:58.468Z,99150.00
2018-09-22T10:47:27.865Z,99148.00
2018-09-22T10:49:56.928Z,99153.00
2018-09-22T10:52:26.483Z,99149.00
2018-09-22T10:54:55.553Z,99155.00
2018-09-22T10:57:24.624Z,99145.00
2018-09-22T10:59:53.776Z,99123.00
2018-09-22T11:02:22.872Z,99129.00
2018-09-22T11:04:51.916Z,99124.00
2018-09-22T11:07:21.012Z,99135.00
2018-09-22T11:09:50.132Z,99132.00
2018-09-22T11:12:19.184Z,99140.00
2018-09-22T11:14:48.244Z,99151.00
2018-09-22T11:17:17.424Z,99142.00
2018-09-22T11:19:46.621Z,99136.00
2018-09-22T11:22:15.688Z,99121.00
2018-09-22T11:24:45.120Z,99130.00
2018-09-22T11:27:14.151Z,99129.00
2018-09-22T11:29:43.196Z,99122.00
2018-09-22T11:32:12.277Z,99122.00
2018-09-22T11:34:42.028Z,99117.00
2018-09-22T11:37:11.104Z,99136.00
2018-09-22T11:39:40.712Z,99132.00
2018-09-22T11:42:09.752Z,99103.00
2018-09-22T11:44:38.901Z,99088.00
2018-09-22T11:47:08.123Z,99087.00
2018-09-22T11:49:37.224Z,99096.00
2018-09-22T11:52:06.508Z,99089.00
2018-09-22T11:54:35.620Z,99096.00
2018-09-22T11:57:04.689Z,99085.00
2018-09-22T11:59:33.885Z,99081.00
2018-09-22T12:02:03.026Z,99084.00
2018-09-22T12:04:32.000Z,99068.00
2018-09-22T12:07:01.073Z,99065.00
2018-09-22T12:09:30.156Z,99063.00
2018-09-22T12:11:59.261Z,99056.00
2018-09-22T12:14:28.359Z,99059.00
2018-09-22T12:16:57.468Z,99073.00
2018-09-22T12:19:26.660Z,99066.00
2018-09-22T12:21:55.800Z,99069.00
2018-09-22T12:24:24.904Z,99071.00
2018-09-22T12:26:54.045Z,99076.00
2018-09-22T12:29:23.132Z,99068.00
2018-09-22T12:31:52.340Z,99074.00
2018-09-22T12:34:21.415Z,99053.00
2018-09-22T12:36:50.520Z,99051.00
2018-09-22T12:39:19.617Z,99055.00
2018-09-22T12:41:48.740Z,99052.00
2018-09-22T12:44:17.813Z,99053.00
2018-09-22T12:46:46.905Z,99060.00
2018-09-22T12:49:15.976Z,99054.00
2018-09-22T12:51:45.294Z,99045.00
2018-09-22T12:54:14.413Z,99046.00
2018-09-22T12:56:43.512Z,99054.00
2018-09-22T12:59:12.697Z,99064.00
2018-09-22T13:01:41.792Z,99065.00
2018-09-22T13:04:10.859Z,99052.00
2018-09-22T13:06:39.975Z,99044.00
2018-09-22T13:09:10.660Z,99045.00
2018-09-22T13:11:39.815Z,99033.00
2018-09-22T13:14:09.255Z,99019.00
2018-09-22T13:16:38.921Z,99019.00
2018-09-22T13:19:08.012Z,99010.00
2018-09-22T13:21:37.100Z,99016.00
2018-09-22T13:24:06.203Z,99013.00
2018-09-22T13:26:35.301Z,98996.00
2018-09-22T13:29:04.701Z,99008.00
2018-09-22T13:31:35.169Z,99029.00
2018-09-22T13:34:04.484Z,99026.00
2018-09-22T13:36:33.553Z,99034.00
2018-09-22T13:39:02.648Z,99036.00
2018-09-22T13:41:31.784Z,99039.00
2018-09-22T13:44:01.082Z,99037.00
2018-09-22T13:46:30.135Z,99023.00
2018-09-22T13:48:59.277Z,99018.00
2018-09-22T13:51:28.351Z,99022.00
2018-09-22T13:53:57.488Z,99020.00
2018-09-22T13:56:26.573Z,99026.00
2018-09-22T13:58:55.652Z,99017.00
2018-09-22T14:01:24.789Z,99017.00
2018-09-22T14:03:53.904Z,99006.00
2018-09-22T14:06:22.920Z,99018.00
2018-09-22T14:08:52.053Z,99016.00
2018-09-22T14:11:21.128Z,99028.00
2018-09-22T14:13:50.228Z,99007.00
2018-09-22T14:16:19.280Z,99005.00
2018-09-22T14:18:48.481Z,99004.00
2018-09-22T14:21:17.752Z,98998.00
2018-09-22T14:23:47.241Z,98984.00
2018-09-22T14:26:16.352Z,98985.00
2018-09-22T14:28:45.440Z,98991.00
2018-09-22T14:31:14.508Z,98975.00
2018-09-22T14:33:43.604Z,98969.00
2018-09-22T14:36:12.749Z,98983.00
2018-09-22T14:38:41.848Z,98975.00
2018-09-22T14:41:10.948Z,98969.00
2018-09-22T14:43:40.044Z,98975.00
2018-09-22T14:46:09.164Z,98983.00
2018-09-22T14:48:38.269Z,98988.00
2018-09-22T14:51:07.321Z,98985.00
2018-09-22T14:53:36.382Z,99000.00
2018-09-22T14:56:06.729Z,98991.00
2018-09-22T14:58:35.748Z,98982.00
2018-09-22T15:01:04.969Z,98970.00
2018-09-22T15:03:34.004Z,98976.00
2018-09-22T15:06:03.120Z,98967.00
2018-09-22T15:08:32.661Z,98955.00
2018-09-22T15:11:01.705Z,98956.00
2018-09-22T15:13:30.768Z,98952.00
2018-09-22T15:16:00.272Z,98951.00
2018-09-22T15:18:29.405Z,98953.00
2018-09-22T15:20:58.456Z,98944.00
2018-09-22T15:23:27.596Z,98955.00
2018-09-22T15:25:56.668Z,98952.00
2018-09-22T15:28:25.789Z,98957.00
2018-09-22T15:30:55.189Z,98956.00
2018-09-22T15:33:24.284Z,98955.00
2018-09-22T15:35:53.359Z,98947.00
2018-09-22T15:38:22.453Z,98947.00
2018-09-22T15:40:52.075Z,98954.00
2018-09-22T15:43:21.176Z,98944.00
2018-09-22T15:45:50.281Z,98940.00
2018-09-22T15:48:19.398Z,98943.00
2018-09-22T15:50:48.468Z,98940.00
2018-09-22T15:53:17.556Z,98934.00
2018-09-22T15:55:46.656Z,98930.00
2018-09-22T15:58:15.864Z,98926.00
2018-09-22T16:00:44.994Z,98921.00
2018-09-22T16:03:14.045Z,98915.00
2018-09-22T16:05:43.141Z,98913.00
2018-09-22T16:08:12.200Z,98910.00
2018-09-22T16:10:41.328Z,98919.00
2018-09-22T16:13:10.412Z,98920.00
2018-09-22T16:15:39.541Z,98916.00
2018-09-22T16:18:08.617Z,98921.00
2018-09-22T16:20:37.718Z,98936.00
2018-09-22T16:23:07.557Z,98940.00
2018-09-22T16:25:36.744Z,98948.00
2018-09-22T16:28:05.840Z,98946.00
2018-09-22T16:30:34.973Z,98958.00
2018-09-22T16:33:04.080Z,98953.00
2018-09-22T16:35:33.205Z,98952.00
2018-09-22T16:38:02.280Z,98946.00
2018-09-22T16:40:31.364Z,98952.00
2018-09-22T16:43:00.412Z,98951.00
2018-09-22T16:45:29.536Z,98944.00
2018-09-22T16:47:58.685Z,98942.00
2018-09-22T16:50:27.791Z,98940.00
2018-09-22T16:52:56.876Z,98942.00
2018-09-22T16:55:25.940Z,98946.00
2018-09-22T16:57:55.600Z,98952.00
2018-09-22T17:00:24.796Z,98953.00
2018-09-22T17:02:53.872Z,98957.00
2018-09-22T17:05:22.928Z,98962.00
2018-09-22T17:07:52.172Z,98970.00
2018-09-22T17:10:21.261Z,98968.00
2018-09-22T17:12:50.425Z,98959.00
2018-09-22T17:15:19.501Z,98951.00
2018-09-22T17:17:49.140Z,98954.00
2018-09-22T17:20:18.252Z,98956.00
2018-09-22T17:22:47.331Z,98953.00
2018-09-22T17:25:16.427Z,98951.00
2018-09-22T17:27:45.547Z,98944.00
2018-09-22T17:30:14.672Z,98953.00
2018-09-22T17:32:43.833Z,98953.00
2018-09-22T17:35:12.844Z,98966.00
2018-09-22T17:37:42.022Z,98968.00
2018-09-22T17:40:11.084Z,98966.00
2018-09-22T17:42:40.300Z,98970.00
2018-09-22T17:45:09.688Z,98970.00
2018-09-22T17:47:38.800Z,98971.00
2018-09-22T17:50:07.917Z,98967.00
2018-09-22T17:52:37.056Z,98961.00
2018-09-22T17:55:06.480Z,98960.00
2018-09-22T17:57:35.836Z,98947.00
2018-09-22T18:00:05.094Z,98949.00
2018-09-22T18:02:34.189Z,98947.00
2018-09-22T18:05:03.305Z,98945.00
2018-09-22T18:07:32.472Z,98948.00
2018-09-22T18:10:01.555Z,98949.00
2018-09-22T18:12:30.588Z,98957.00
2018-09-22T18:14:59.744Z,98961.00
2018-09-22T18:17:28.841Z,98960.00
2018-09-22T18:19:57.985Z,98962.00
2018-09-22T18:22:27.072Z,98948.00
2018-09-22T18:24:56.148Z,98947.00
2018-09-22T18:27:25.684Z,98936.00
2018-09-22T18:29:54.764Z,98934.00
2018-09-22T18:32:23.868Z,98938.00
2018-09-22T18:34:52.944Z,98936.00
2018-09-22T18:37:22.213Z,98939.00
2018-09-22T18:39:51.359Z,98954.00
2018-09-22T18:42:20.432Z,98955.00
2018-09-22T18:44:49.549Z,98956.00
2018-09-22T18:47:18.645Z,98964.00
2018-09-22T18:49:47.742Z,98972.00
2018-09-22T18:52:16.928Z,98973.00
2018-09-22T18:54:45.996Z,98970.00
2018-09-22T18:57:15.092Z,98979.00
2018-09-22T18:59:44.429Z,98963.00
2018-09-22T19:02:13.480Z,98961.00
2018-09-22T19:04:43.236Z,98954.00
2018-09-22T19:07:12.272Z,98953.00
2018-09-22T19:09:42.017Z,98963.00
2018-09-22T19:12:11.028Z,98959.00
2018-09-22T19:15:43.571Z,98958.00
2018-09-22T19:18:48.965Z,98960.00
2018-09-22T19:21:22.356Z,98965.00
2018-09-22T19:23:58.072Z,98960.00
2018-09-22T19:27:31.000Z,98954.00
2018-09-22T19:30:03.783Z,98965.00
2018-09-22T19:32:45.757Z,98964.00
2018-09-22T19:36:20.388Z,98965.00
2018-09-22T19:39:06.749Z,98966.00
2018-09-22T19:42:39.760Z,98979.00
2018-09-22T19:45:14.837Z,98982.00
2018-09-22T19:47:48.536Z,98972.00
2018-09-22T19:50:22.817Z,98976.00
2018-09-22T19:52:52.592Z,98979.00
2018-09-22T19:55:21.736Z,98975.00
2018-09-22T19:57:51.117Z,98970.00
2018-09-22T20:00:20.224Z,98960.00
2018-09-22T20:02:49.300Z,98959.00
2018-09-22T20:05:18.456Z,98948.00
2018-09-22T20:07:47.516Z,98948.00
2018-09-22T20:10:16.628Z,98941.00
2018-09-22T20:12:45.749Z,98948.00
2018-09-22T20:15:14.841Z,98953.00
2018-09-22T20:17:44.053Z,98958.00
2018-09-22T20:20:13.196Z,98960.00
2018-09-22T20:22:42.861Z,98963.00
2018-09-22T20:25:11.913Z,98958.00
2018-09-22T20:27:40.956Z,98959.00
2018-09-22T20:30:10.020Z,98961.00
2018-09-22T20:32:39.380Z,98948.00
2018-09-22T20:35:08.754Z,98936.00
2018-09-22T20:37:37.881Z,98945.00
2018-09-22T20:40:07.028Z,98956.00
2018-09-22T20:42:36.121Z,98956.00
2018-09-22T20:45:05.578Z,98946.00
2018-09-22T20:47:34.696Z,98944.00
2018-09-22T20:50:03.813Z,98932.00
2018-09-22T20:52:32.908Z,98931.00
2018-09-22T20:55:02.022Z,98931.00
2018-09-22T20:57:31.200Z,98926.00
2018-09-22T21:00:00.270Z,98935.00
2018-09-22T21:02:29.394Z,98927.00
2018-09-22T21:04:58.468Z,98932.00
2018-09-22T21:07:27.585Z,98929.00
2018-09-22T21:09:56.705Z,98929.00
2018-09-22T21:12:25.753Z,98933.00
2018-09-22T21:14:54.792Z,98934.00
2018-09-22T21:17:24.340Z,98936.00
2018-09-22T21:19:53.470Z,98927.00
2018-09-22T21:22:23.056Z,98923.00
2018-09-22T21:24:52.200Z,98913.00
2018-09-22T21:27:21.294Z,98922.00
2018-09-22T21:29:50.340Z,98919.00
2018-09-22T21:32:19.489Z,98912.00
2018-09-22T21:34:48.557Z,98910.00
2018-09-22T21:37:17.652Z,98901.00
2018-09-22T21:39:46.668Z,98902.00
2018-09-22T21:42:16.320Z,98904.00
2018-09-22T21:44:45.453Z,98910.00
2018-09-22T21:47:14.741Z,98912.00
2018-09-22T21:49:43.844Z,98911.00
2018-09-22T21:52:12.884Z,98903.00
2018-09-22T21:54:42.590Z,98901.00
2018-09-22T21:57:11.623Z,98895.00
2018-09-22T21:59:40.740Z,98901.00
2018-09-22T22:02:09.877Z,98897.00
2018-09-22T22:04:38.984Z,98900.00
2018-09-22T22:07:08.249Z,98896.00
2018-09-22T22:09:37.405Z,98894.00
2018-09-22T22:12:06.505Z,98890.00
2018-09-22T22:14:36.188Z,98883.00
2018-09-22T22:17:05.280Z,98877.00
2018-09-22T22:19:34.321Z,98878.00
2018-09-22T22:22:03.394Z,98870.00
2018-09-22T22:24:32.528Z,98871.00
2018-09-22T22:27:02.549Z,98872.00
2018-09-22T22:29:31.629Z,98875.00
2018-09-22T22:32:02.152Z,98873.00
2018-09-22T22:34:31.224Z,98867.00
2018-09-22T22:37:00.336Z,98859.00
2018-09-22T22:39:29.497Z,98865.00
2018-09-22T22:41:58.600Z,98866.00
2018-09-22T22:44:27.757Z,98867.00
2018-09-22T22:46:56.726Z,98864.00
2018-09-22T22:49:25.830Z,98867.00
2018-09-22T22:51:54.924Z,98864.00
2018-09-22T22:54:23.988Z,98862.00
2018-09-22T22:56:53.072Z,98857.00
2018-09-22T22:59:22.180Z,98861.00
2018-09-22T23:01:51.605Z,98854.00
2018-09-22T23:04:20.713Z,98854.00
2018-09-22T23:06:49.760Z,98845.00
2018-09-22T23:09:19.200Z,98841.00
2018-09-22T23:11:48.260Z,98827.00
2018-09-22T23:14:17.396Z,98819.00
2018-09-22T23:16:46.465Z,98821.00
2018-09-22T23:19:15.539Z,98824.00
2018-09-22T23:21:44.640Z,98821.00
2018-09-22T23:24:13.716Z,98818.00
2018-09-22T23:26:42.769Z,98816.00
2018-09-22T23:29:11.780Z,98817.00
2018-09-22T23:31:40.932Z,98807.00
2018-09-22T23:34:10.017Z,98809.00
2018-09-22T23:36:39.149Z,98810.00
2018-09-22T23:39:10.185Z,98816.00
2018-09-22T23:41:39.444Z,98817.00
2018-09-22T23:44:09.022Z,98809.00
2018-09-22T23:46:39.076Z,98811.00
2018-09-22T23:49:08.572Z,98808.00
2018-09-22T23:51:37.723Z,98807.00
2018-09-22T23:54:06.964Z,98800.00
2018-09-22T23:56:36.116Z,98795.00
2018-09-22T23:59:05.217Z,98796.00
